GCLA/SPC METAR and TAF weather

Enter ICAO airport designator
Station Type Date Time Source
GCLA METAR 2022/01/23 12:30 UTC NOAA

GCLA 231230Z 04006KT 010V070 9999 FEW040 22/16 Q1020


Station Type Date Time Source
GCLA Decoded METAR 2022/01/23 12:30 UTC NOAA

La Palma / Aeropuerto, Spain (GCLA) 28-37N 017-45W 31M
Jan 23, 2022 - 07:30 AM EST / 2022.01.23 1230 UTC
Wind: from the NE (040 degrees) at 7 MPH (6 KT) (direction variable):0
Visibility: greater than 7 mile(s):0
Sky conditions: mostly clear
Temperature: 71 F (22 C)
Dew Point: 60 F (16 C)
Relative Humidity: 68%
Pressure (altimeter): 30.12 in. Hg (1020 hPa)
ob: GCLA 231230Z 04006KT 010V070 9999 FEW040 22/16 Q1020
cycle: 12

Station Type Date Time Source
GCLA TAF 2022/01/23 09:27 UTC NOAA

TAF GCLA 230800Z 2309/2409 04005KT 9999 FEW030 TX23/2314Z TN16/2407Z PROB30
TEMPO 2317/2322 RA

Example: see airport list